Time;durP1;ratioP1;P1;durP2;ratioP2;P2;SDS_P1;SDS_P2;PMS_P1;PMS_P2;Temp;Humidity;BMP_temperature;BMP_pressure;BME280_temperature;BME280_humidity;BME280_pressure;Samples;Min_cycle;Max_cycle;Signal;HPM_P1;HPM_P2
2023/09/28 00:03:08;;;;;;;5.55;3.08;;;11.90;99.90;;;;;;5030097;28;20171;-79
2023/09/28 00:05:34;;;;;;;4.50;2.97;;;12.00;99.90;;;;;;5027806;28;20037;-79
2023/09/28 00:08:01;;;;;;;7.38;2.95;;;12.00;99.90;;;;;;5028882;28;20021;-78
2023/09/28 00:10:28;;;;;;;5.05;2.95;;;11.90;99.90;;;;;;5006905;28;20454;-79
2023/09/28 00:12:54;;;;;;;5.90;2.90;;;11.90;99.90;;;;;;5025043;28;20065;-78
2023/09/28 00:15:21;;;;;;;6.03;3.15;;;11.90;99.90;;;;;;5031560;28;20029;-78
2023/09/28 00:17:47;;;;;;;5.32;3.20;;;11.90;99.90;;;;;;5027531;28;20097;-79
2023/09/28 00:20:18;;;;;;;6.13;3.70;;;11.80;99.90;;;;;;5011561;28;20058;-78
2023/09/28 00:22:45;;;;;;;6.05;3.53;;;11.80;99.90;;;;;;5028503;28;20021;-78
2023/09/28 00:25:11;;;;;;;5.35;3.42;;;11.80;99.90;;;;;;5026674;28;20034;-78
2023/09/28 00:27:45;;;;;;;4.95;3.28;;;11.80;99.90;;;;;;5008006;28;20474;-78
2023/09/28 00:30:18;;;;;;;4.82;2.95;;;11.80;99.90;;;;;;5029760;28;20022;-78
2023/09/28 00:32:45;;;;;;;3.83;2.85;;;11.70;99.90;;;;;;5010613;28;20025;-79
2023/09/28 00:35:11;;;;;;;6.55;3.25;;;11.60;99.90;;;;;;5024426;28;20033;-79
2023/09/28 00:37:37;;;;;;;6.95;3.83;;;11.50;99.90;;;;;;5027994;28;20058;-78
2023/09/28 00:40:18;;;;;;;5.28;4.07;;;11.50;99.90;;;;;;5026493;28;20030;-78
2023/09/28 00:42:45;;;;;;;7.43;3.35;;;11.50;99.90;;;;;;5014837;28;20084;-79
2023/09/28 00:45:11;;;;;;;4.88;2.97;;;11.50;99.90;;;;;;5027002;28;20025;-79
2023/09/28 00:47:40;;;;;;;9.98;3.80;;;11.40;99.90;;;;;;5028320;28;20098;-79
2023/09/28 00:50:10;;;;;;;6.72;3.17;;;11.40;99.90;;;;;;5027741;28;20029;-79
2023/09/28 00:52:41;;;;;;;5.75;3.47;;;11.40;99.90;;;;;;5035472;28;20478;-78
2023/09/28 00:55:09;;;;;;;5.07;3.78;;;11.40;99.90;;;;;;5024892;28;20033;-78
2023/09/28 00:57:41;;;;;;;5.85;3.40;;;11.30;99.90;;;;;;5029072;28;20141;-78
2023/09/28 01:00:21;;;;;;;5.15;3.00;;;11.30;99.90;;;;;;5033425;28;20021;-78
2023/09/28 01:02:51;;;;;;;5.28;3.10;;;11.30;99.90;;;;;;5029347;28;20552;-79
2023/09/28 01:05:20;;;;;;;5.85;3.13;;;11.30;99.90;;;;;;5002045;28;20088;-78
2023/09/28 01:07:46;;;;;;;6.65;3.60;;;11.30;99.90;;;;;;5012583;28;20021;-78
2023/09/28 01:10:14;;;;;;;10.95;6.82;;;11.20;99.90;;;;;;5024025;28;20482;-78
2023/09/28 01:12:41;;;;;;;13.20;7.57;;;11.20;99.90;;;;;;5035104;28;20382;-78
2023/09/28 01:15:11;;;;;;;11.63;6.22;;;11.20;99.90;;;;;;5024715;28;20032;-78
2023/09/28 01:17:38;;;;;;;7.80;4.88;;;11.20;99.90;;;;;;5029042;28;20029;-78
2023/09/28 01:20:17;;;;;;;6.93;3.78;;;11.10;99.90;;;;;;5015378;28;20048;-78
2023/09/28 01:22:49;;;;;;;4.78;3.47;;;11.00;99.90;;;;;;5022166;28;20038;-78
2023/09/28 01:25:15;;;;;;;5.60;3.38;;;11.00;99.90;;;;;;5032192;28;20038;-78
2023/09/28 01:27:44;;;;;;;4.63;3.03;;;11.00;99.90;;;;;;5029747;28;20535;-78
2023/09/28 01:30:11;;;;;;;6.63;3.17;;;11.00;99.90;;;;;;5006865;28;20022;-79
2023/09/28 01:32:37;;;;;;;3.90;2.80;;;10.90;99.90;;;;;;5035491;28;20018;-78
2023/09/28 01:35:04;;;;;;;6.30;2.88;;;10.90;99.90;;;;;;5025562;28;20041;-79
2023/09/28 01:37:39;;;;;;;5.63;3.10;;;10.90;99.90;;;;;;5030817;28;20426;-79
2023/09/28 01:40:05;;;;;;;4.10;3.03;;;10.90;99.90;;;;;;5033815;28;20121;-79
2023/09/28 01:42:31;;;;;;;8.80;3.20;;;10.90;99.90;;;;;;5008523;28;20513;-79
2023/09/28 01:44:57;;;;;;;6.72;3.08;;;10.90;99.90;;;;;;5020241;28;20034;-78
2023/09/28 01:47:22;;;;;;;5.05;3.15;;;10.80;99.90;;;;;;5013914;28;20040;-79
2023/09/28 01:49:48;;;;;;;5.28;3.22;;;10.80;99.90;;;;;;5031396;28;20026;-78
2023/09/28 01:52:13;;;;;;;6.93;3.63;;;10.80;99.90;;;;;;5037682;28;20040;-79
2023/09/28 01:54:39;;;;;;;5.22;3.10;;;10.80;99.90;;;;;;5026664;28;20041;-79
2023/09/28 01:57:05;;;;;;;6.18;3.58;;;10.80;99.90;;;;;;5037130;28;20041;-78
2023/09/28 01:59:31;;;;;;;5.78;3.45;;;10.80;99.90;;;;;;5032259;28;20059;-79
2023/09/28 02:01:57;;;;;;;4.95;3.25;;;10.80;99.90;;;;;;5015564;28;20045;-79
2023/09/28 02:04:22;;;;;;;6.32;3.53;;;10.70;99.90;;;;;;5042749;28;20071;-79
2023/09/28 02:06:48;;;;;;;5.50;3.10;;;10.70;99.90;;;;;;5026168;28;20041;-78
2023/09/28 02:09:17;;;;;;;6.88;2.95;;;10.60;99.90;;;;;;5035426;28;20026;-78
2023/09/28 02:11:44;;;;;;;5.10;3.58;;;10.60;99.90;;;;;;5033784;28;20026;-79
2023/09/28 02:14:12;;;;;;;6.93;4.90;;;10.60;99.90;;;;;;5027984;28;20026;-78
2023/09/28 02:16:39;;;;;;;9.48;5.65;;;10.40;99.90;;;;;;5022177;28;20037;-79
2023/09/28 02:19:05;;;;;;;10.57;6.95;;;10.40;99.90;;;;;;5028654;28;20030;-79
2023/09/28 02:21:31;;;;;;;13.52;7.85;;;10.40;99.90;;;;;;5033208;28;20052;-79
2023/09/28 02:24:01;;;;;;;15.32;8.70;;;10.30;99.90;;;;;;5036043;28;20060;-79
2023/09/28 02:26:26;;;;;;;26.58;13.13;;;10.40;99.90;;;;;;5025362;28;20022;-79
2023/09/28 02:28:52;;;;;;;15.77;9.07;;;10.40;99.90;;;;;;5036349;28;20026;-79
2023/09/28 02:31:18;;;;;;;7.25;4.72;;;10.40;99.90;;;;;;5028519;28;20021;-78
2023/09/28 02:33:44;;;;;;;9.55;4.53;;;10.30;99.90;;;;;;5028982;28;20022;-78
2023/09/28 02:36:09;;;;;;;5.95;3.65;;;10.30;99.90;;;;;;5035420;28;20045;-78
2023/09/28 02:38:35;;;;;;;4.90;3.17;;;10.30;99.90;;;;;;5024270;28;20030;-78
2023/09/28 02:41:01;;;;;;;4.70;3.17;;;10.30;99.90;;;;;;5035797;28;20066;-78
2023/09/28 02:43:27;;;;;;;6.90;3.75;;;10.30;99.90;;;;;;5030484;28;20036;-78
2023/09/28 02:45:52;;;;;;;6.25;3.90;;;10.30;99.90;;;;;;5029144;28;20080;-78
2023/09/28 02:48:18;;;;;;;8.10;4.10;;;10.30;99.90;;;;;;5037427;28;20029;-78
2023/09/28 02:50:44;;;;;;;5.55;3.97;;;10.30;99.90;;;;;;5025190;28;20505;-78
2023/09/28 02:53:10;;;;;;;4.45;3.17;;;10.30;99.90;;;;;;5043727;28;20026;-79
2023/09/28 02:55:36;;;;;;;6.25;3.72;;;10.30;99.90;;;;;;5039275;28;20036;-78
2023/09/28 02:58:05;;;;;;;5.15;3.50;;;10.30;99.90;;;;;;5027534;28;20026;-78
2023/09/28 03:00:32;;;;;;;5.70;3.63;;;10.30;99.90;;;;;;5036764;28;20061;-79
2023/09/28 03:03:03;;;;;;;5.32;3.42;;;10.30;99.90;;;;;;5033147;28;20028;-79
2023/09/28 03:05:30;;;;;;;6.47;3.80;;;10.30;99.90;;;;;;5030667;28;20042;-78
2023/09/28 03:07:58;;;;;;;4.50;3.17;;;10.20;99.90;;;;;;5005872;28;20030;-79
2023/09/28 03:10:24;;;;;;;4.97;3.42;;;10.20;99.90;;;;;;5035392;28;20018;-78
2023/09/28 03:12:51;;;;;;;5.20;3.10;;;10.20;99.90;;;;;;5038757;28;20036;-78
2023/09/28 03:15:17;;;;;;;4.88;3.20;;;10.20;99.90;;;;;;5020051;28;20029;-78
2023/09/28 03:17:43;;;;;;;6.20;3.20;;;10.20;99.90;;;;;;5020721;28;20053;-78
2023/09/28 03:20:19;;;;;;;6.38;3.38;;;10.10;99.90;;;;;;5019868;28;20061;-78
2023/09/28 03:22:45;;;;;;;5.68;3.40;;;10.00;99.90;;;;;;5020055;28;20029;-78
2023/09/28 03:25:17;;;;;;;5.38;3.40;;;9.90;99.90;;;;;;5022928;28;20109;-79
2023/09/28 03:27:45;;;;;;;6.78;3.17;;;9.90;99.90;;;;;;5040216;28;20026;-78
2023/09/28 03:30:12;;;;;;;4.97;3.33;;;9.90;99.90;;;;;;5040128;28;20021;-78
2023/09/28 03:32:38;;;;;;;5.28;3.38;;;9.90;99.90;;;;;;5030675;28;20026;-78
2023/09/28 03:35:07;;;;;;;5.65;3.25;;;9.80;99.90;;;;;;5020649;28;20033;-79
2023/09/28 03:37:33;;;;;;;5.47;3.17;;;9.80;99.90;;;;;;5020505;28;20018;-78
2023/09/28 03:40:00;;;;;;;4.20;3.05;;;9.80;99.90;;;;;;5020650;28;20080;-78
2023/09/28 03:42:27;;;;;;;4.30;3.08;;;9.80;99.90;;;;;;5021394;28;20026;-78
2023/09/28 03:44:53;;;;;;;6.22;3.20;;;9.70;99.90;;;;;;5020495;28;20030;-78
2023/09/28 03:47:19;;;;;;;4.55;3.22;;;9.70;99.90;;;;;;5020422;28;20451;-78
2023/09/28 03:49:45;;;;;;;4.50;3.20;;;9.70;99.90;;;;;;5020790;28;20032;-79
2023/09/28 03:52:10;;;;;;;4.82;3.22;;;9.60;99.90;;;;;;5033021;28;20030;-78
2023/09/28 03:54:36;;;;;;;4.38;3.33;;;9.50;99.90;;;;;;5037536;28;20083;-79
2023/09/28 03:57:02;;;;;;;5.07;2.95;;;9.50;99.90;;;;;;5014658;28;20025;-78
2023/09/28 03:59:28;;;;;;;5.50;3.65;;;9.50;99.90;;;;;;5038823;28;20025;-78
2023/09/28 04:01:54;;;;;;;6.55;3.30;;;9.60;99.90;;;;;;5039100;28;20032;-79
2023/09/28 04:04:20;;;;;;;5.20;3.67;;;9.60;99.90;;;;;;5038481;28;20093;-78
2023/09/28 04:06:45;;;;;;;6.78;3.60;;;9.60;99.90;;;;;;5030770;28;20101;-79
2023/09/28 04:09:11;;;;;;;6.80;3.45;;;9.60;99.90;;;;;;5020967;28;20036;-79
2023/09/28 04:11:37;;;;;;;6.13;3.30;;;9.60;99.90;;;;;;5012743;28;20017;-78
2023/09/28 04:14:03;;;;;;;4.72;2.90;;;9.60;99.90;;;;;;5039868;28;20079;-78
2023/09/28 04:16:28;;;;;;;5.43;3.20;;;9.60;99.90;;;;;;5020659;28;20026;-79
2023/09/28 04:18:54;;;;;;;4.53;2.92;;;9.60;99.90;;;;;;5039110;28;20116;-79
2023/09/28 04:21:20;;;;;;;5.65;3.00;;;9.50;99.90;;;;;;5012575;28;20029;-78
2023/09/28 04:23:45;;;;;;;4.80;3.17;;;9.50;99.90;;;;;;5036380;28;20034;-79
2023/09/28 04:26:11;;;;;;;5.03;2.67;;;9.50;99.90;;;;;;5020519;28;20093;-79
2023/09/28 04:28:37;;;;;;;3.95;2.80;;;9.50;99.90;;;;;;5022468;28;20033;-80
2023/09/28 04:31:02;;;;;;;5.13;3.33;;;9.50;99.90;;;;;;5023745;28;20029;-80
2023/09/28 04:33:28;;;;;;;4.28;2.97;;;9.50;99.90;;;;;;5035039;28;20382;-79
2023/09/28 04:35:54;;;;;;;5.72;3.08;;;9.50;99.90;;;;;;5020864;28;20076;-80
2023/09/28 04:38:19;;;;;;;4.55;2.97;;;9.40;99.90;;;;;;5019432;28;20037;-79
2023/09/28 04:40:45;;;;;;;3.78;2.88;;;9.40;99.90;;;;;;5017982;28;20367;-78
2023/09/28 04:43:11;;;;;;;7.43;3.05;;;9.40;99.90;;;;;;5036349;28;20036;-78
2023/09/28 04:45:36;;;;;;;5.10;2.70;;;9.40;99.90;;;;;;5028527;28;20089;-78
2023/09/28 04:48:04;;;;;;;4.97;3.40;;;9.40;99.90;;;;;;5021611;28;20743;-79
2023/09/28 04:50:30;;;;;;;5.22;3.10;;;9.40;99.90;;;;;;5030685;28;20081;-78
2023/09/28 04:52:55;;;;;;;5.85;3.22;;;9.30;99.90;;;;;;5019953;28;20061;-79
2023/09/28 04:55:23;;;;;;;4.55;3.38;;;9.30;99.90;;;;;;5040561;28;20029;-78
2023/09/28 04:57:48;;;;;;;5.97;3.55;;;9.30;99.90;;;;;;5040654;28;20084;-79
2023/09/28 05:00:16;;;;;;;6.20;4.10;;;9.20;99.90;;;;;;5040228;28;20444;-78
2023/09/28 05:02:45;;;;;;;6.20;4.43;;;9.10;99.90;;;;;;5041696;28;20047;-78
2023/09/28 05:05:11;;;;;;;7.38;4.05;;;9.10;99.90;;;;;;5042270;28;20057;-78
2023/09/28 05:07:37;;;;;;;6.88;4.25;;;9.10;99.90;;;;;;5042021;28;20025;-78
2023/09/28 05:10:05;;;;;;;7.32;4.38;;;9.10;99.90;;;;;;5040514;28;20032;-78
2023/09/28 05:12:31;;;;;;;7.43;4.85;;;9.10;99.90;;;;;;5040948;28;20029;-78
2023/09/28 05:14:57;;;;;;;12.57;8.13;;;9.10;99.90;;;;;;5040565;28;20429;-78
2023/09/28 05:17:23;;;;;;;24.02;13.60;;;9.10;99.90;;;;;;5026519;28;20031;-78
2023/09/28 05:19:49;;;;;;;13.82;8.73;;;9.10;99.90;;;;;;5044870;28;20027;-78
2023/09/28 05:22:15;;;;;;;12.20;6.72;;;9.00;99.90;;;;;;5043949;28;20468;-78
2023/09/28 05:24:41;;;;;;;7.03;4.50;;;9.00;99.90;;;;;;5044766;28;20021;-78
2023/09/28 05:27:07;;;;;;;5.65;3.97;;;9.10;99.90;;;;;;5045753;28;20021;-78
2023/09/28 05:29:33;;;;;;;6.72;3.20;;;9.00;99.90;;;;;;5045865;28;20072;-78
2023/09/28 05:31:59;;;;;;;6.95;3.63;;;9.00;99.90;;;;;;5045957;28;20029;-78
2023/09/28 05:34:24;;;;;;;6.55;3.60;;;9.00;99.90;;;;;;5045038;28;20052;-78
2023/09/28 05:36:50;;;;;;;5.47;3.55;;;9.00;99.90;;;;;;5043476;28;20049;-78
2023/09/28 05:39:18;;;;;;;4.82;3.17;;;9.00;99.90;;;;;;5042040;28;20032;-78
2023/09/28 05:41:44;;;;;;;9.25;3.47;;;9.00;99.90;;;;;;5023084;28;20041;-77
2023/09/28 05:44:09;;;;;;;6.65;3.17;;;9.00;99.90;;;;;;5031034;28;20030;-77
2023/09/28 05:46:36;;;;;;;6.20;3.28;;;9.00;99.90;;;;;;5015855;28;20038;-77
2023/09/28 05:49:02;;;;;;;6.47;3.15;;;9.00;99.90;;;;;;5015254;28;20022;-77
2023/09/28 05:51:28;;;;;;;7.78;3.70;;;9.00;99.90;;;;;;5016555;28;20026;-77
2023/09/28 05:53:54;;;;;;;5.60;3.35;;;9.00;99.90;;;;;;5016108;28;20072;-78
2023/09/28 05:56:20;;;;;;;6.60;3.13;;;9.00;99.90;;;;;;5016322;28;20113;-78
2023/09/28 05:58:46;;;;;;;5.50;3.63;;;9.00;99.90;;;;;;5016201;28;20109;-77
2023/09/28 06:01:15;;;;;;;5.80;3.70;;;9.10;99.90;;;;;;5016250;28;20031;-77
2023/09/28 06:03:41;;;;;;;6.32;3.78;;;9.10;99.90;;;;;;5034131;28;20096;-77
2023/09/28 06:06:18;;;;;;;5.00;3.55;;;9.10;99.90;;;;;;5036365;28;20030;-77
2023/09/28 06:08:46;;;;;;;5.57;3.50;;;9.10;99.90;;;;;;5036498;28;20500;-78
2023/09/28 06:11:16;;;;;;;6.43;3.97;;;9.10;99.90;;;;;;5035537;28;20041;-78
2023/09/28 06:13:43;;;;;;;8.57;3.70;;;9.20;99.90;;;;;;5035660;28;20462;-78
2023/09/28 06:16:12;;;;;;;7.45;3.80;;;9.20;99.90;;;;;;5036072;28;20029;-77
2023/09/28 06:18:40;;;;;;;6.57;3.38;;;9.20;99.90;;;;;;5017895;28;20026;-77
2023/09/28 06:21:06;;;;;;;7.55;3.60;;;9.20;99.90;;;;;;5018685;28;20091;-77
2023/09/28 06:23:33;;;;;;;6.28;3.90;;;9.30;99.90;;;;;;5035976;28;20033;-77
2023/09/28 06:25:59;;;;;;;5.90;3.70;;;9.30;99.90;;;;;;5035583;28;20021;-77
2023/09/28 06:28:24;;;;;;;6.32;3.50;;;9.40;99.90;;;;;;5034551;28;20029;-77
2023/09/28 06:30:52;;;;;;;6.97;4.10;;;9.40;99.90;;;;;;5035472;28;20022;-77
2023/09/28 06:33:18;;;;;;;6.13;3.67;;;9.50;99.90;;;;;;5035591;28;20567;-77
2023/09/28 06:35:43;;;;;;;8.10;4.68;;;9.50;99.90;;;;;;5017732;28;20077;-77
2023/09/28 06:38:10;;;;;;;6.15;4.55;;;9.60;99.90;;;;;;5035350;28;20033;-77
2023/09/28 06:40:37;;;;;;;8.77;4.57;;;9.70;99.90;;;;;;5035418;28;20033;-77
2023/09/28 06:43:03;;;;;;;7.35;4.72;;;9.70;99.90;;;;;;5035434;28;20048;-77
2023/09/28 06:45:29;;;;;;;9.77;5.63;;;9.80;99.90;;;;;;5035419;28;20485;-77
2023/09/28 06:47:54;;;;;;;8.05;5.28;;;9.90;99.90;;;;;;5035583;28;20638;-77
2023/09/28 06:50:21;;;;;;;10.77;5.60;;;9.90;99.90;;;;;;5035299;28;20026;-77
2023/09/28 06:52:46;;;;;;;9.57;5.82;;;10.00;99.90;;;;;;5035398;28;20055;-77
2023/09/28 06:55:13;;;;;;;14.32;6.93;;;10.10;99.90;;;;;;5035376;28;20049;-77
2023/09/28 06:57:39;;;;;;;11.85;7.10;;;10.10;99.90;;;;;;5035348;28;20493;-78
2023/09/28 07:00:09;;;;;;;10.95;7.70;;;10.20;99.90;;;;;;5035818;28;20037;-77
2023/09/28 07:02:37;;;;;;;12.52;9.25;;;10.20;99.90;;;;;;5035506;28;20436;-77
2023/09/28 07:05:03;;;;;;;12.90;8.85;;;10.30;99.90;;;;;;5034857;28;20390;-77
2023/09/28 07:07:30;;;;;;;12.20;7.75;;;10.40;99.90;;;;;;5035128;28;20036;-77
2023/09/28 07:09:56;;;;;;;12.25;7.68;;;10.50;99.90;;;;;;5035250;28;20018;-77
2023/09/28 07:12:23;;;;;;;10.63;7.55;;;10.50;99.90;;;;;;5035743;28;20028;-77
2023/09/28 07:14:48;;;;;;;10.60;7.68;;;10.60;99.90;;;;;;5035621;28;20079;-77
2023/09/28 07:17:14;;;;;;;13.88;7.30;;;10.70;99.90;;;;;;5035950;28;20065;-77
2023/09/28 07:19:42;;;;;;;14.25;7.10;;;10.80;99.90;;;;;;5034584;28;20075;-77
2023/09/28 07:22:08;;;;;;;12.85;7.07;;;10.90;99.90;;;;;;5034355;28;20493;-77
2023/09/28 07:24:33;;;;;;;13.02;6.32;;;11.00;99.90;;;;;;5034390;28;20061;-77
2023/09/28 07:27:00;;;;;;;11.38;6.28;;;11.20;99.90;;;;;;5033742;28;20026;-77
2023/09/28 07:29:25;;;;;;;12.52;6.78;;;11.30;99.90;;;;;;5034679;28;20021;-77
2023/09/28 07:31:51;;;;;;;11.65;6.65;;;11.40;99.90;;;;;;5035488;28;20052;-77
2023/09/28 07:34:17;;;;;;;9.73;6.13;;;11.60;99.90;;;;;;5035292;28;20103;-78
2023/09/28 07:36:42;;;;;;;11.00;7.25;;;11.70;99.90;;;;;;5035644;28;20386;-77
2023/09/28 07:39:08;;;;;;;14.85;7.22;;;11.80;99.90;;;;;;5035302;28;20125;-78
2023/09/28 07:41:34;;;;;;;13.77;7.38;;;11.90;99.90;;;;;;5035818;28;20036;-77
2023/09/28 07:43:59;;;;;;;12.77;6.80;;;12.00;99.90;;;;;;5035515;28;20029;-78
2023/09/28 07:46:25;;;;;;;10.63;6.97;;;12.20;99.90;;;;;;5035328;28;20029;-77
2023/09/28 07:48:51;;;;;;;11.30;7.25;;;12.30;99.90;;;;;;5035817;28;20022;-78
2023/09/28 07:51:17;;;;;;;14.50;8.35;;;12.40;99.90;;;;;;5036421;28;20515;-78
2023/09/28 07:53:43;;;;;;;16.85;8.65;;;12.60;99.90;;;;;;5035596;28;20049;-78
2023/09/28 07:56:09;;;;;;;16.40;9.68;;;12.70;99.90;;;;;;5035914;28;20477;-78
2023/09/28 07:58:35;;;;;;;16.67;9.55;;;12.90;99.90;;;;;;5036033;28;20539;-78
2023/09/28 08:01:01;;;;;;;16.70;9.68;;;13.00;99.90;;;;;;5036034;28;20105;-78
2023/09/28 08:03:27;;;;;;;19.42;12.25;;;13.10;99.90;;;;;;5035774;28;20501;-78
2023/09/28 08:05:54;;;;;;;17.90;10.73;;;13.20;99.90;;;;;;5035889;28;20038;-78
2023/09/28 08:08:20;;;;;;;18.17;11.75;;;13.30;99.90;;;;;;5035329;28;20389;-78
2023/09/28 08:10:45;;;;;;;25.20;13.25;;;13.40;99.90;;;;;;5035733;28;20025;-78
2023/09/28 08:13:11;;;;;;;23.38;12.98;;;13.50;99.90;;;;;;5035885;28;20470;-77
2023/09/28 08:15:37;;;;;;;20.48;12.65;;;13.60;99.90;;;;;;5036250;28;20025;-78
2023/09/28 08:18:03;;;;;;;22.33;13.82;;;13.80;99.90;;;;;;5018503;28;20503;-78
2023/09/28 08:20:29;;;;;;;25.90;15.80;;;13.90;99.90;;;;;;5035932;28;20080;-77
2023/09/28 08:22:54;;;;;;;21.50;15.70;;;14.00;99.90;;;;;;5036401;28;20037;-78
2023/09/28 08:25:20;;;;;;;24.35;17.13;;;14.10;99.90;;;;;;5036286;28;20041;-78
2023/09/28 08:27:46;;;;;;;27.48;19.02;;;14.20;99.90;;;;;;5036709;28;20033;-78
2023/09/28 08:30:12;;;;;;;28.83;21.63;;;14.30;99.90;;;;;;5037123;28;20048;-79
2023/09/28 08:32:37;;;;;;;32.05;24.92;;;14.50;99.90;;;;;;5039969;28;20481;-79
2023/09/28 08:35:04;;;;;;;31.75;24.08;;;14.50;99.90;;;;;;5039406;28;20124;-79
2023/09/28 08:37:29;;;;;;;30.15;21.35;;;14.60;99.90;;;;;;5039904;28;20052;-79
2023/09/28 08:39:57;;;;;;;33.10;23.23;;;14.60;99.90;;;;;;5040503;28;20037;-79
2023/09/28 08:42:25;;;;;;;30.83;23.70;;;14.80;99.90;;;;;;5041815;28;20029;-79
2023/09/28 08:45:02;;;;;;;29.92;22.08;;;14.90;99.90;;;;;;5041410;28;20030;-79
2023/09/28 08:47:49;;;;;;;29.55;23.60;;;15.00;99.90;;;;;;5041480;28;20017;-80
2023/09/28 08:50:22;;;;;;;28.20;21.73;;;15.10;99.90;;;;;;5023679;28;20040;-79
2023/09/28 08:52:50;;;;;;;26.48;20.05;;;15.20;99.90;;;;;;5045580;28;20022;-79
2023/09/28 08:55:16;;;;;;;26.80;20.30;;;15.30;99.90;;;;;;5044940;28;20086;-79
2023/09/28 08:57:43;;;;;;;28.65;20.75;;;15.40;99.90;;;;;;5027879;28;20481;-79
2023/09/28 09:00:13;;;;;;;27.00;19.25;;;15.60;99.90;;;;;;5044783;28;20045;-80
2023/09/28 09:02:42;;;;;;;24.58;17.45;;;15.70;99.90;;;;;;5045578;28;20105;-80
2023/09/28 09:05:08;;;;;;;25.00;17.55;;;15.80;99.90;;;;;;5045279;28;20029;-80
2023/09/28 09:07:36;;;;;;;21.73;17.67;;;16.00;99.90;;;;;;5044272;28;20029;-80
2023/09/28 09:10:02;;;;;;;24.35;16.95;;;16.10;99.90;;;;;;5026942;28;20025;-79
2023/09/28 09:12:32;;;;;;;19.35;14.32;;;16.30;99.90;;;;;;5044821;28;20028;-80
2023/09/28 09:14:58;;;;;;;15.95;11.30;;;16.40;99.90;;;;;;5044748;28;20036;-80
2023/09/28 09:17:33;;;;;;;15.07;9.85;;;16.50;99.90;;;;;;5044672;28;20037;-80
2023/09/28 09:19:59;;;;;;;12.45;9.57;;;16.60;99.90;;;;;;5044510;28;20030;-79
2023/09/28 09:22:26;;;;;;;17.00;12.82;;;16.80;99.90;;;;;;5044530;28;20060;-79
2023/09/28 09:24:56;;;;;;;17.15;13.23;;;16.90;99.90;;;;;;5044644;28;20022;-80
2023/09/28 09:27:29;;;;;;;17.55;12.88;;;17.00;99.90;;;;;;5048262;28;20021;-79
2023/09/28 09:29:58;;;;;;;19.38;12.95;;;17.10;99.90;;;;;;5052508;28;20041;-80
2023/09/28 09:32:27;;;;;;;15.77;11.75;;;17.30;99.90;;;;;;5046017;28;20040;-80
2023/09/28 09:34:54;;;;;;;16.23;10.98;;;17.40;99.90;;;;;;5042932;28;20393;-80
2023/09/28 09:37:19;;;;;;;16.73;10.55;;;17.60;99.90;;;;;;5042285;28;20033;-76
2023/09/28 09:39:45;;;;;;;15.80;10.63;;;17.70;99.90;;;;;;5042707;28;20033;-80
2023/09/28 09:42:11;;;;;;;17.63;10.48;;;17.80;99.90;;;;;;5041918;28;20026;-80
2023/09/28 09:44:38;;;;;;;13.85;9.52;;;17.90;99.90;;;;;;5042049;28;20088;-79
2023/09/28 09:47:03;;;;;;;14.82;9.20;;;18.00;99.90;;;;;;5042302;28;20018;-80
2023/09/28 09:49:30;;;;;;;12.27;9.65;;;18.10;99.90;;;;;;5042211;28;20036;-80
2023/09/28 09:51:59;;;;;;;14.00;8.75;;;18.30;99.90;;;;;;5024399;28;20026;-79
2023/09/28 09:54:25;;;;;;;14.52;9.75;;;18.40;99.90;;;;;;5040984;28;20026;-80
2023/09/28 09:56:52;;;;;;;13.98;8.80;;;18.50;99.90;;;;;;5042165;28;20037;-79
2023/09/28 09:59:20;;;;;;;10.75;7.90;;;18.60;99.90;;;;;;5041973;28;20036;-79
2023/09/28 10:01:50;;;;;;;9.90;7.53;;;18.80;99.90;;;;;;5042125;28;20029;-79
2023/09/28 10:04:18;;;;;;;9.38;7.75;;;18.90;99.90;;;;;;5041491;28;20036;-79
2023/09/28 10:06:51;;;;;;;11.75;7.40;;;19.10;99.90;;;;;;5041864;28;20108;-79
2023/09/28 10:09:18;;;;;;;8.77;6.43;;;19.20;99.90;;;;;;5041309;28;20549;-79
2023/09/28 10:11:46;;;;;;;10.55;5.95;;;19.30;99.90;;;;;;5023977;28;20034;-79
2023/09/28 10:14:18;;;;;;;9.48;6.47;;;19.40;99.90;;;;;;5041586;28;20033;-79
2023/09/28 10:16:48;;;;;;;8.85;6.03;;;19.50;99.90;;;;;;5023718;28;20028;-80
2023/09/28 10:19:19;;;;;;;11.88;6.43;;;19.60;99.90;;;;;;5042055;28;20022;-80
2023/09/28 10:21:45;;;;;;;12.98;6.57;;;19.70;99.90;;;;;;5041905;28;20096;-79
2023/09/28 10:24:13;;;;;;;8.07;5.05;;;19.80;99.90;;;;;;5041278;28;20022;-80
2023/09/28 10:26:47;;;;;;;10.32;5.68;;;19.90;99.90;;;;;;5041957;28;20048;-79
2023/09/28 10:29:23;;;;;;;8.57;5.13;;;20.00;99.90;;;;;;5042123;28;20025;-79
2023/09/28 10:31:53;;;;;;;7.35;5.43;;;20.10;99.90;;;;;;5042095;28;20045;-79
2023/09/28 10:34:20;;;;;;;9.70;5.32;;;20.20;99.90;;;;;;5008441;28;20033;-79
2023/09/28 10:37:06;;;;;;;8.65;4.63;;;20.30;99.90;;;;;;5042304;28;20029;-80
2023/09/28 10:39:32;;;;;;;7.22;5.05;;;20.40;99.90;;;;;;5042139;28;20017;-80
2023/09/28 10:42:15;;;;;;;11.57;5.20;;;20.50;99.90;;;;;;5042559;28;20537;-80
2023/09/28 10:44:49;;;;;;;7.03;4.47;;;20.60;99.90;;;;;;5043840;28;20025;-80
2023/09/28 10:47:15;;;;;;;6.18;4.30;;;20.70;99.90;;;;;;5044506;28;20049;-80
2023/09/28 10:49:41;;;;;;;7.85;4.93;;;20.80;99.90;;;;;;5044354;28;20029;-81
2023/09/28 10:52:10;;;;;;;7.72;4.10;;;20.90;99.90;;;;;;5046440;28;20030;-79
2023/09/28 10:54:36;;;;;;;7.93;4.07;;;21.00;99.90;;;;;;5046612;28;20040;-79
2023/09/28 10:57:02;;;;;;;6.57;4.32;;;21.10;99.90;;;;;;5045816;28;20033;-80
2023/09/28 10:59:28;;;;;;;9.30;4.40;;;21.20;99.90;;;;;;5045448;28;20036;-78
2023/09/28 11:01:54;;;;;;;6.47;4.20;;;21.30;99.90;;;;;;5045511;28;20025;-80
2023/09/28 11:04:20;;;;;;;5.90;4.00;;;21.30;99.90;;;;;;5045235;28;20087;-80
2023/09/28 11:06:46;;;;;;;6.78;3.80;;;21.40;99.90;;;;;;5043874;28;20021;-80
2023/09/28 11:09:14;;;;;;;7.07;4.43;;;21.40;99.90;;;;;;5009533;28;20030;-79
2023/09/28 11:11:42;;;;;;;8.48;4.32;;;21.50;99.90;;;;;;5039414;28;20017;-78
2023/09/28 11:14:10;;;;;;;7.20;4.20;;;21.50;99.90;;;;;;5033972;28;20060;-77
2023/09/28 11:16:38;;;;;;;9.13;4.25;;;21.60;99.90;;;;;;5027145;28;20105;-80
2023/09/28 11:19:04;;;;;;;6.47;3.75;;;21.80;99.90;;;;;;5023662;28;20085;-79
2023/09/28 11:21:31;;;;;;;7.55;4.18;;;21.80;99.90;;;;;;5023207;28;20081;-80
2023/09/28 11:23:57;;;;;;;7.50;4.20;;;21.90;99.90;;;;;;5022714;28;20022;-80
2023/09/28 11:26:24;;;;;;;6.03;4.13;;;22.00;99.90;;;;;;5022975;28;20034;-80
2023/09/28 11:28:51;;;;;;;6.28;3.95;;;22.10;99.90;;;;;;5035075;28;20050;-80
2023/09/28 11:31:17;;;;;;;6.85;3.85;;;22.20;99.90;;;;;;5042886;28;20029;-80
2023/09/28 11:33:45;;;;;;;8.25;3.75;;;22.20;99.90;;;;;;5042027;28;20109;-80
2023/09/28 11:36:20;;;;;;;5.63;3.88;;;22.40;99.90;;;;;;5041230;28;20068;-79
2023/09/28 11:38:47;;;;;;;5.93;3.42;;;22.40;99.90;;;;;;5034476;28;20025;-79
2023/09/28 11:41:13;;;;;;;7.30;4.00;;;22.50;99.90;;;;;;5037350;28;20030;-79
2023/09/28 11:43:52;;;;;;;7.57;3.85;;;22.60;99.90;;;;;;5028878;28;20501;-79
2023/09/28 11:46:25;;;;;;;5.78;3.55;;;22.70;98.50;;;;;;5040936;28;20025;-79
2023/09/28 11:49:10;;;;;;;5.30;2.88;;;22.80;97.60;;;;;;5032435;28;20049;-80
2023/09/28 11:51:37;;;;;;;4.10;2.78;;;22.90;96.50;;;;;;5021604;28;20041;-79
2023/09/28 11:54:12;;;;;;;7.18;2.60;;;23.00;95.10;;;;;;5021780;28;20030;-79
2023/09/28 11:56:40;;;;;;;5.00;2.70;;;23.10;94.00;;;;;;5022583;28;20034;-80
2023/09/28 11:59:07;;;;;;;6.13;2.85;;;23.20;93.40;;;;;;5034847;28;20033;-79
2023/09/28 12:01:32;;;;;;;7.63;2.90;;;23.40;96.30;;;;;;5028362;28;20017;-78
2023/09/28 12:03:59;;;;;;;6.28;2.95;;;23.50;94.90;;;;;;5033954;28;20025;-79
2023/09/28 12:06:25;;;;;;;6.20;2.60;;;23.60;94.80;;;;;;5039706;28;20029;-79
2023/09/28 12:08:51;;;;;;;6.20;2.88;;;23.70;95.30;;;;;;5041100;28;20021;-79
2023/09/28 12:11:17;;;;;;;7.70;3.10;;;23.90;94.70;;;;;;5041076;28;20108;-79
2023/09/28 12:13:43;;;;;;;5.35;2.40;;;24.00;93.90;;;;;;5041917;28;20076;-79
2023/09/28 12:16:09;;;;;;;5.15;2.65;;;24.00;91.10;;;;;;5040735;28;20030;-79
2023/09/28 12:18:34;;;;;;;5.05;2.42;;;24.10;91.30;;;;;;5040916;28;20033;-80
2023/09/28 12:21:00;;;;;;;4.63;2.30;;;24.20;89.40;;;;;;5041031;28;20086;-79
2023/09/28 12:23:26;;;;;;;3.25;2.05;;;24.20;89.30;;;;;;5040636;28;20048;-79
2023/09/28 12:25:52;;;;;;;5.05;2.30;;;24.20;90.20;;;;;;5040690;28;20413;-79
2023/09/28 12:28:18;;;;;;;3.15;2.13;;;24.30;87.90;;;;;;5041168;28;20030;-79
2023/09/28 12:30:44;;;;;;;6.00;2.40;;;24.30;87.90;;;;;;5041445;28;20079;-79
2023/09/28 12:33:11;;;;;;;5.90;2.20;;;24.30;85.60;;;;;;5041064;28;20089;-79
2023/09/28 12:35:39;;;;;;;4.88;2.22;;;24.40;89.50;;;;;;5041136;28;20040;-79
2023/09/28 12:38:05;;;;;;;4.60;2.33;;;24.40;87.80;;;;;;5040905;28;20044;-79
2023/09/28 12:40:34;;;;;;;5.40;2.47;;;24.50;84.10;;;;;;5040819;28;20030;-79
2023/09/28 12:43:05;;;;;;;3.47;2.22;;;24.60;84.60;;;;;;5022441;28;20065;-79
2023/09/28 12:45:35;;;;;;;4.70;1.92;;;24.70;82.00;;;;;;5040376;28;20038;-79
2023/09/28 12:48:05;;;;;;;3.47;1.80;;;24.70;77.90;;;;;;5047468;28;20028;-79